sensor_id;sensor_type;location;lat;lon;timestamp;pressure;altitude;pressure_sealevel;temperature;humidity
72055;BME280;59936;51.490;5.436;2022-11-20T00:02:32;101010.41;;;-3.68;100.00
72055;BME280;59936;51.490;5.436;2022-11-20T00:07:35;101015.25;;;-3.80;100.00
72055;BME280;59936;51.490;5.436;2022-11-20T00:12:36;101014.94;;;-3.96;100.00
72055;BME280;59936;51.490;5.436;2022-11-20T00:17:38;101007.19;;;-4.01;100.00
72055;BME280;59936;51.490;5.436;2022-11-20T00:22:42;101006.09;;;-4.14;100.00
72055;BME280;59936;51.490;5.436;2022-11-20T00:27:44;101013.47;;;-4.26;100.00
72055;BME280;59936;51.490;5.436;2022-11-20T00:32:46;101003.47;;;-4.18;100.00
72055;BME280;59936;51.490;5.436;2022-11-20T00:37:49;101004.16;;;-4.25;100.00
72055;BME280;59936;51.490;5.436;2022-11-20T00:42:54;101004.84;;;-4.33;100.00
72055;BME280;59936;51.490;5.436;2022-11-20T00:47:55;101006.41;;;-4.38;100.00
72055;BME280;59936;51.490;5.436;2022-11-20T00:52:58;101007.16;;;-4.44;100.00
72055;BME280;59936;51.490;5.436;2022-11-20T00:58:00;101006.31;;;-4.43;100.00
72055;BME280;59936;51.490;5.436;2022-11-20T01:03:02;101005.34;;;-4.48;100.00
72055;BME280;59936;51.490;5.436;2022-11-20T01:08:05;101005.16;;;-4.57;100.00
72055;BME280;59936;51.490;5.436;2022-11-20T01:13:06;100995.81;;;-4.57;100.00
72055;BME280;59936;51.490;5.436;2022-11-20T01:18:26;101005.91;;;-4.61;100.00
72055;BME280;59936;51.490;5.436;2022-11-20T01:23:34;100996.31;;;-4.72;100.00
72055;BME280;59936;51.490;5.436;2022-11-20T01:28:38;101011.69;;;-4.69;100.00
72055;BME280;59936;51.490;5.436;2022-11-20T01:33:41;101005.28;;;-4.51;100.00
72055;BME280;59936;51.490;5.436;2022-11-20T01:38:45;100997.78;;;-4.45;100.00
72055;BME280;59936;51.490;5.436;2022-11-20T01:43:48;100982.38;;;-4.51;100.00
72055;BME280;59936;51.490;5.436;2022-11-20T01:48:51;100997.38;;;-4.62;100.00
72055;BME280;59936;51.490;5.436;2022-11-20T01:54:03;100992.41;;;-4.57;100.00
72055;BME280;59936;51.490;5.436;2022-11-20T01:59:17;101001.66;;;-4.62;100.00
72055;BME280;59936;51.490;5.436;2022-11-20T02:04:22;100999.03;;;-4.66;100.00
72055;BME280;59936;51.490;5.436;2022-11-20T02:09:27;100988.41;;;-4.46;100.00
72055;BME280;59936;51.490;5.436;2022-11-20T02:14:29;100987.59;;;-4.45;100.00
72055;BME280;59936;51.490;5.436;2022-11-20T02:19:31;100987.84;;;-4.32;100.00
72055;BME280;59936;51.490;5.436;2022-11-20T02:24:35;100982.00;;;-4.27;100.00
72055;BME280;59936;51.490;5.436;2022-11-20T02:29:39;100980.41;;;-4.23;100.00
72055;BME280;59936;51.490;5.436;2022-11-20T02:34:46;100976.19;;;-4.21;100.00
72055;BME280;59936;51.490;5.436;2022-11-20T02:39:51;100982.25;;;-4.16;100.00
72055;BME280;59936;51.490;5.436;2022-11-20T02:44:53;100977.19;;;-4.14;100.00
72055;BME280;59936;51.490;5.436;2022-11-20T02:49:54;100977.34;;;-4.06;100.00
72055;BME280;59936;51.490;5.436;2022-11-20T02:54:58;100991.22;;;-3.92;100.00
72055;BME280;59936;51.490;5.436;2022-11-20T03:00:00;100978.69;;;-3.81;100.00
72055;BME280;59936;51.490;5.436;2022-11-20T03:05:02;100972.00;;;-3.74;100.00
72055;BME280;59936;51.490;5.436;2022-11-20T03:10:07;100967.88;;;-3.69;100.00
72055;BME280;59936;51.490;5.436;2022-11-20T03:15:09;100966.25;;;-3.64;100.00
72055;BME280;59936;51.490;5.436;2022-11-20T03:20:12;100971.44;;;-3.57;100.00
72055;BME280;59936;51.490;5.436;2022-11-20T03:25:15;100965.63;;;-3.50;100.00
72055;BME280;59936;51.490;5.436;2022-11-20T03:30:17;100954.63;;;-3.46;100.00
72055;BME280;59936;51.490;5.436;2022-11-20T03:35:19;100952.16;;;-3.43;100.00
72055;BME280;59936;51.490;5.436;2022-11-20T03:40:22;100943.72;;;-3.39;100.00
72055;BME280;59936;51.490;5.436;2022-11-20T03:45:24;100931.75;;;-3.41;100.00
72055;BME280;59936;51.490;5.436;2022-11-20T03:50:27;100932.63;;;-3.41;100.00
72055;BME280;59936;51.490;5.436;2022-11-20T03:55:30;100934.22;;;-3.46;100.00
72055;BME280;59936;51.490;5.436;2022-11-20T04:00:32;100925.59;;;-3.53;100.00
72055;BME280;59936;51.490;5.436;2022-11-20T04:05:34;100913.69;;;-3.54;100.00
72055;BME280;59936;51.490;5.436;2022-11-20T04:10:37;100922.19;;;-3.53;100.00
72055;BME280;59936;51.490;5.436;2022-11-20T04:15:38;100924.00;;;-3.49;100.00
72055;BME280;59936;51.490;5.436;2022-11-20T04:20:40;100927.34;;;-3.50;100.00
72055;BME280;59936;51.490;5.436;2022-11-20T04:25:43;100926.50;;;-3.51;100.00
72055;BME280;59936;51.490;5.436;2022-11-20T04:30:45;100915.50;;;-3.48;100.00
72055;BME280;59936;51.490;5.436;2022-11-20T04:35:47;100917.94;;;-3.53;100.00
72055;BME280;59936;51.490;5.436;2022-11-20T04:40:50;100916.13;;;-3.60;100.00
72055;BME280;59936;51.490;5.436;2022-11-20T04:45:52;100910.28;;;-3.54;100.00
72055;BME280;59936;51.490;5.436;2022-11-20T04:50:54;100907.00;;;-3.47;100.00
72055;BME280;59936;51.490;5.436;2022-11-20T04:56:00;100907.00;;;-3.47;100.00
72055;BME280;59936;51.490;5.436;2022-11-20T05:01:03;100903.66;;;-3.43;100.00
72055;BME280;59936;51.490;5.436;2022-11-20T05:06:08;100900.25;;;-3.42;100.00
72055;BME280;59936;51.490;5.436;2022-11-20T05:11:13;100894.19;;;-3.50;100.00
72055;BME280;59936;51.490;5.436;2022-11-20T05:16:17;100888.25;;;-3.49;100.00
72055;BME280;59936;51.490;5.436;2022-11-20T05:21:21;100887.44;;;-3.46;100.00
72055;BME280;59936;51.490;5.436;2022-11-20T05:26:24;100881.53;;;-3.44;100.00
72055;BME280;59936;51.490;5.436;2022-11-20T05:31:26;100876.53;;;-3.36;100.00
72055;BME280;59936;51.490;5.436;2022-11-20T05:36:28;100872.34;;;-3.32;100.00
72055;BME280;59936;51.490;5.436;2022-11-20T05:41:33;100874.97;;;-3.29;100.00
72055;BME280;59936;51.490;5.436;2022-11-20T05:46:36;100892.16;;;-3.16;100.00
72055;BME280;59936;51.490;5.436;2022-11-20T05:51:37;100893.13;;;-3.07;100.00
72055;BME280;59936;51.490;5.436;2022-11-20T05:56:40;100898.47;;;-2.92;100.00
72055;BME280;59936;51.490;5.436;2022-11-20T06:01:42;100901.19;;;-2.79;100.00
72055;BME280;59936;51.490;5.436;2022-11-20T06:06:44;100914.03;;;-2.75;100.00
72055;BME280;59936;51.490;5.436;2022-11-20T06:11:47;100913.25;;;-2.69;100.00
72055;BME280;59936;51.490;5.436;2022-11-20T06:16:48;100909.19;;;-2.53;100.00
72055;BME280;59936;51.490;5.436;2022-11-20T06:21:50;100904.16;;;-2.48;100.00
72055;BME280;59936;51.490;5.436;2022-11-20T06:26:53;100909.38;;;-2.40;100.00
72055;BME280;59936;51.490;5.436;2022-11-20T06:31:55;100907.78;;;-2.29;100.00
72055;BME280;59936;51.490;5.436;2022-11-20T06:36:57;100911.28;;;-2.22;100.00
72055;BME280;59936;51.490;5.436;2022-11-20T06:42:00;100888.38;;;-2.13;100.00
72055;BME280;59936;51.490;5.436;2022-11-20T06:47:01;100891.88;;;-2.04;100.00
72055;BME280;59936;51.490;5.436;2022-11-20T06:52:03;100883.38;;;-2.00;100.00
72055;BME280;59936;51.490;5.436;2022-11-20T06:57:06;100885.03;;;-2.07;100.00
72055;BME280;59936;51.490;5.436;2022-11-20T07:02:09;100891.06;;;-2.00;100.00
72055;BME280;59936;51.490;5.436;2022-11-20T07:07:12;100884.28;;;-1.98;100.00
72055;BME280;59936;51.490;5.436;2022-11-20T07:12:15;100900.56;;;-1.90;100.00
72055;BME280;59936;51.490;5.436;2022-11-20T07:17:16;100876.63;;;-1.95;100.00
72055;BME280;59936;51.490;5.436;2022-11-20T07:22:18;100878.34;;;-1.94;100.00
72055;BME280;59936;51.490;5.436;2022-11-20T07:27:23;100870.72;;;-1.88;100.00
72055;BME280;59936;51.490;5.436;2022-11-20T07:32:24;100875.03;;;-1.81;100.00
72055;BME280;59936;51.490;5.436;2022-11-20T07:37:26;100873.38;;;-1.78;100.00
72055;BME280;59936;51.490;5.436;2022-11-20T07:42:29;100863.16;;;-1.72;100.00
72055;BME280;59936;51.490;5.436;2022-11-20T07:47:35;100861.53;;;-1.64;100.00
72055;BME280;59936;51.490;5.436;2022-11-20T07:52:37;100867.56;;;-1.59;100.00
72055;BME280;59936;51.490;5.436;2022-11-20T07:57:40;100874.47;;;-1.50;100.00
72055;BME280;59936;51.490;5.436;2022-11-20T08:02:42;100868.56;;;-1.38;100.00
72055;BME280;59936;51.490;5.436;2022-11-20T08:07:44;100879.75;;;-1.28;100.00
72055;BME280;59936;51.490;5.436;2022-11-20T08:12:49;100872.22;;;-1.08;100.00
72055;BME280;59936;51.490;5.436;2022-11-20T08:18:12;100881.75;;;-0.85;100.00
72055;BME280;59936;51.490;5.436;2022-11-20T08:23:13;100873.13;;;-0.92;100.00
72055;BME280;59936;51.490;5.436;2022-11-20T08:28:17;100875.88;;;-0.65;100.00
72055;BME280;59936;51.490;5.436;2022-11-20T08:33:18;100865.63;;;-0.56;100.00
72055;BME280;59936;51.490;5.436;2022-11-20T08:38:20;100871.69;;;-0.43;100.00
72055;BME280;59936;51.490;5.436;2022-11-20T08:43:24;100864.88;;;-0.27;100.00
72055;BME280;59936;51.490;5.436;2022-11-20T08:48:26;100870.06;;;-0.08;100.00
72055;BME280;59936;51.490;5.436;2022-11-20T08:53:28;100860.66;;;-0.12;100.00
72055;BME280;59936;51.490;5.436;2022-11-20T08:58:31;100863.22;;;0.01;100.00
72055;BME280;59936;51.490;5.436;2022-11-20T09:03:33;100865.84;;;0.10;100.00
72055;BME280;59936;51.490;5.436;2022-11-20T09:08:35;100855.56;;;0.10;100.00
72055;BME280;59936;51.490;5.436;2022-11-20T09:13:39;100853.00;;;0.24;100.00
72055;BME280;59936;51.490;5.436;2022-11-20T09:18:41;100853.00;;;0.32;100.00
72055;BME280;59936;51.490;5.436;2022-11-20T09:23:44;100852.13;;;0.33;100.00
72055;BME280;59936;51.490;5.436;2022-11-20T09:28:48;100842.72;;;0.46;100.00
72055;BME280;59936;51.490;5.436;2022-11-20T09:33:49;100831.56;;;0.61;100.00
72055;BME280;59936;51.490;5.436;2022-11-20T09:38:52;100822.19;;;0.68;100.00
72055;BME280;59936;51.490;5.436;2022-11-20T09:43:57;100814.47;;;0.69;100.00
72055;BME280;59936;51.490;5.436;2022-11-20T09:49:21;100812.75;;;0.74;100.00
72055;BME280;59936;51.490;5.436;2022-11-20T09:54:32;100809.31;;;0.79;100.00
72055;BME280;59936;51.490;5.436;2022-11-20T09:59:41;100803.25;;;0.95;100.00
72055;BME280;59936;51.490;5.436;2022-11-20T10:04:52;100793.81;;;1.00;100.00
72055;BME280;59936;51.490;5.436;2022-11-20T10:10:00;100771.59;;;0.87;100.00
72055;BME280;59936;51.490;5.436;2022-11-20T10:15:12;100762.13;;;0.98;100.00
72055;BME280;59936;51.490;5.436;2022-11-20T10:20:30;100737.16;;;1.25;100.00
72055;BME280;59936;51.490;5.436;2022-11-20T10:25:47;100731.06;;;1.42;100.00
72055;BME280;59936;51.490;5.436;2022-11-20T10:31:07;100739.50;;;1.64;100.00
72055;BME280;59936;51.490;5.436;2022-11-20T10:36:17;100724.22;;;1.38;100.00
72055;BME280;59936;51.490;5.436;2022-11-20T10:41:26;100707.94;;;1.36;100.00
72055;BME280;59936;51.490;5.436;2022-11-20T10:46:40;100690.59;;;1.69;100.00
72055;BME280;59936;51.490;5.436;2022-11-20T10:51:54;100695.94;;;1.38;100.00
72055;BME280;59936;51.490;5.436;2022-11-20T10:57:10;100682.19;;;1.45;100.00
72055;BME280;59936;51.490;5.436;2022-11-20T11:02:24;100670.00;;;1.69;100.00
72055;BME280;59936;51.490;5.436;2022-11-20T11:07:37;100662.13;;;1.86;100.00
72055;BME280;59936;51.490;5.436;2022-11-20T11:12:43;100664.06;;;1.61;100.00
72055;BME280;59936;51.490;5.436;2022-11-20T11:17:50;100659.75;;;1.63;100.00
72055;BME280;59936;51.490;5.436;2022-11-20T11:22:53;100657.00;;;1.85;100.00
72055;BME280;59936;51.490;5.436;2022-11-20T11:28:01;100659.44;;;2.00;100.00
72055;BME280;59936;51.490;5.436;2022-11-20T11:33:09;100652.53;;;2.02;100.00
72055;BME280;59936;51.490;5.436;2022-11-20T11:38:14;100642.25;;;2.01;100.00
72055;BME280;59936;51.490;5.436;2022-11-20T11:43:23;100637.16;;;1.96;100.00
72055;BME280;59936;51.490;5.436;2022-11-20T11:48:56;100618.28;;;1.97;100.00
72055;BME280;59936;51.490;5.436;2022-11-20T11:54:00;100606.19;;;2.02;100.00
72055;BME280;59936;51.490;5.436;2022-11-20T11:59:14;100602.63;;;2.16;100.00
72055;BME280;59936;51.490;5.436;2022-11-20T12:04:30;100599.13;;;2.23;100.00
72055;BME280;59936;51.490;5.436;2022-11-20T12:09:46;100574.06;;;2.35;100.00
72055;BME280;59936;51.490;5.436;2022-11-20T12:14:54;100546.72;;;2.26;100.00
72055;BME280;59936;51.490;5.436;2022-11-20T12:19:58;100546.59;;;2.37;100.00
72055;BME280;59936;51.490;5.436;2022-11-20T12:25:04;100534.44;;;2.45;100.00
72055;BME280;59936;51.490;5.436;2022-11-20T12:30:15;100524.81;;;2.60;100.00
72055;BME280;59936;51.490;5.436;2022-11-20T12:35:34;100521.31;;;2.64;100.00
72055;BME280;59936;51.490;5.436;2022-11-20T12:40:49;100506.66;;;2.67;100.00
72055;BME280;59936;51.490;5.436;2022-11-20T12:51:37;100495.91;;;2.95;100.00
72055;BME280;59936;51.490;5.436;2022-11-20T12:56:54;100476.88;;;3.04;100.00
72055;BME280;59936;51.490;5.436;2022-11-20T13:02:12;100449.81;;;3.27;100.00
72055;BME280;59936;51.490;5.436;2022-11-20T13:07:32;100433.59;;;3.22;100.00
72055;BME280;59936;51.490;5.436;2022-11-20T13:12:41;100419.47;;;3.42;100.00
72055;BME280;59936;51.490;5.436;2022-11-20T13:17:52;100410.91;;;3.40;100.00
72055;BME280;59936;51.490;5.436;2022-11-20T13:23:00;100408.09;;;3.51;100.00
72055;BME280;59936;51.490;5.436;2022-11-20T13:28:05;100395.13;;;3.55;100.00
72055;BME280;59936;51.490;5.436;2022-11-20T13:33:33;100387.56;;;3.46;100.00
72055;BME280;59936;51.490;5.436;2022-11-20T13:38:43;100376.16;;;3.56;100.00
72055;BME280;59936;51.490;5.436;2022-11-20T13:43:52;100364.88;;;3.60;100.00
72055;BME280;59936;51.490;5.436;2022-11-20T13:48:54;100359.72;;;3.60;100.00
72055;BME280;59936;51.490;5.436;2022-11-20T13:54:20;100349.28;;;3.67;100.00
72055;BME280;59936;51.490;5.436;2022-11-20T13:59:46;100342.97;;;3.80;100.00
72055;BME280;59936;51.490;5.436;2022-11-20T14:05:00;100338.69;;;3.79;100.00
72055;BME280;59936;51.490;5.436;2022-11-20T14:10:05;100328.28;;;3.84;100.00
72055;BME280;59936;51.490;5.436;2022-11-20T14:15:24;100308.56;;;3.80;100.00
72055;BME280;59936;51.490;5.436;2022-11-20T14:20:29;100309.28;;;3.86;100.00
72055;BME280;59936;51.490;5.436;2022-11-20T14:25:34;100300.91;;;3.77;100.00
72055;BME280;59936;51.490;5.436;2022-11-20T14:30:42;100299.13;;;3.79;100.00
72055;BME280;59936;51.490;5.436;2022-11-20T14:35:48;100295.00;;;3.71;100.00
72055;BME280;59936;51.490;5.436;2022-11-20T14:40:52;100289.03;;;3.68;100.00
72055;BME280;59936;51.490;5.436;2022-11-20T14:45:59;100276.28;;;3.62;100.00
72055;BME280;59936;51.490;5.436;2022-11-20T14:51:03;100262.53;;;3.61;100.00
72055;BME280;59936;51.490;5.436;2022-11-20T14:56:08;100248.78;;;3.60;100.00
72055;BME280;59936;51.490;5.436;2022-11-20T15:01:12;100232.44;;;3.62;100.00
72055;BME280;59936;51.490;5.436;2022-11-20T15:06:25;100205.69;;;3.64;100.00
72055;BME280;59936;51.490;5.436;2022-11-20T15:11:31;100195.38;;;3.64;100.00
72055;BME280;59936;51.490;5.436;2022-11-20T15:16:34;100184.34;;;3.57;100.00
72055;BME280;59936;51.490;5.436;2022-11-20T15:21:36;100187.72;;;3.59;100.00
72055;BME280;59936;51.490;5.436;2022-11-20T15:26:39;100169.66;;;3.59;100.00
72055;BME280;59936;51.490;5.436;2022-11-20T15:31:42;100161.84;;;3.63;100.00
72055;BME280;59936;51.490;5.436;2022-11-20T15:36:45;100160.88;;;3.68;100.00
72055;BME280;59936;51.490;5.436;2022-11-20T15:41:48;100141.84;;;3.72;100.00
72055;BME280;59936;51.490;5.436;2022-11-20T15:46:50;100128.69;;;3.82;100.00
72055;BME280;59936;51.490;5.436;2022-11-20T15:51:52;100129.50;;;3.84;100.00
72055;BME280;59936;51.490;5.436;2022-11-20T15:56:55;100107.91;;;3.86;100.00
72055;BME280;59936;51.490;5.436;2022-11-20T16:01:58;100107.81;;;3.91;100.00
72055;BME280;59936;51.490;5.436;2022-11-20T16:06:59;100094.78;;;3.94;100.00
72055;BME280;59936;51.490;5.436;2022-11-20T16:12:04;100088.59;;;4.02;100.00
72055;BME280;59936;51.490;5.436;2022-11-20T16:17:06;100086.56;;;4.13;100.00
72055;BME280;59936;51.490;5.436;2022-11-20T16:22:10;100083.84;;;4.18;100.00
72055;BME280;59936;51.490;5.436;2022-11-20T16:27:13;100071.53;;;4.28;100.00
72055;BME280;59936;51.490;5.436;2022-11-20T16:32:15;100061.81;;;4.36;100.00
72055;BME280;59936;51.490;5.436;2022-11-20T16:37:17;100059.75;;;4.47;100.00
72055;BME280;59936;51.490;5.436;2022-11-20T16:42:21;100042.91;;;4.64;100.00
72055;BME280;59936;51.490;5.436;2022-11-20T16:47:23;100033.59;;;4.58;100.00
72055;BME280;59936;51.490;5.436;2022-11-20T16:52:24;100018.50;;;4.73;100.00
72055;BME280;59936;51.490;5.436;2022-11-20T16:57:29;100025.97;;;4.82;100.00
72055;BME280;59936;51.490;5.436;2022-11-20T17:02:32;100018.94;;;4.87;100.00
72055;BME280;59936;51.490;5.436;2022-11-20T17:07:35;100002.06;;;5.02;100.00
72055;BME280;59936;51.490;5.436;2022-11-20T17:12:39;99988.03;;;5.10;100.00
72055;BME280;59936;51.490;5.436;2022-11-20T17:17:41;99980.97;;;5.15;100.00
72055;BME280;59936;51.490;5.436;2022-11-20T17:22:43;99967.56;;;5.29;100.00
72055;BME280;59936;51.490;5.436;2022-11-20T17:27:47;99949.25;;;5.35;100.00
72055;BME280;59936;51.490;5.436;2022-11-20T17:32:49;99945.25;;;5.50;100.00
72055;BME280;59936;51.490;5.436;2022-11-20T17:37:51;99934.16;;;5.72;100.00
72055;BME280;59936;51.490;5.436;2022-11-20T17:42:54;99935.75;;;5.99;100.00
72055;BME280;59936;51.490;5.436;2022-11-20T17:47:57;99939.63;;;6.11;100.00
72055;BME280;59936;51.490;5.436;2022-11-20T17:52:59;99957.13;;;6.28;100.00
72055;BME280;59936;51.490;5.436;2022-11-20T17:58:05;99958.59;;;6.35;100.00
72055;BME280;59936;51.490;5.436;2022-11-20T18:03:07;99968.53;;;6.46;100.00
72055;BME280;59936;51.490;5.436;2022-11-20T18:08:10;99976.28;;;6.46;100.00
72055;BME280;59936;51.490;5.436;2022-11-20T18:13:13;99982.75;;;6.58;100.00
72055;BME280;59936;51.490;5.436;2022-11-20T18:18:16;100000.66;;;6.64;100.00
72055;BME280;59936;51.490;5.436;2022-11-20T18:23:17;100013.19;;;6.53;100.00
72055;BME280;59936;51.490;5.436;2022-11-20T18:28:22;100015.00;;;6.51;100.00
72055;BME280;59936;51.490;5.436;2022-11-20T18:33:23;100019.28;;;6.52;100.00
72055;BME280;59936;51.490;5.436;2022-11-20T18:38:25;100022.13;;;6.46;100.00
72055;BME280;59936;51.490;5.436;2022-11-20T18:43:28;100024.78;;;6.44;100.00
72055;BME280;59936;51.490;5.436;2022-11-20T18:48:49;100031.25;;;6.32;100.00
72055;BME280;59936;51.490;5.436;2022-11-20T18:53:50;100028.66;;;6.32;100.00
72055;BME280;59936;51.490;5.436;2022-11-20T18:58:53;100024.50;;;6.28;100.00
72055;BME280;59936;51.490;5.436;2022-11-20T19:03:55;100035.94;;;6.22;100.00
72055;BME280;59936;51.490;5.436;2022-11-20T19:08:59;100037.75;;;6.20;100.00
72055;BME280;59936;51.490;5.436;2022-11-20T19:14:02;100039.34;;;6.24;100.00
72055;BME280;59936;51.490;5.436;2022-11-20T19:19:05;100047.44;;;6.15;100.00
72055;BME280;59936;51.490;5.436;2022-11-20T19:24:08;100055.50;;;6.07;100.00
72055;BME280;59936;51.490;5.436;2022-11-20T19:29:12;100050.41;;;6.04;100.00
72055;BME280;59936;51.490;5.436;2022-11-20T19:34:15;100057.47;;;5.99;100.00
72055;BME280;59936;51.490;5.436;2022-11-20T19:39:18;100078.91;;;6.04;100.00
72055;BME280;59936;51.490;5.436;2022-11-20T19:44:21;100077.31;;;6.00;100.00
72055;BME280;59936;51.490;5.436;2022-11-20T19:49:23;100071.16;;;6.02;100.00
72055;BME280;59936;51.490;5.436;2022-11-20T19:54:24;100074.44;;;6.08;100.00
72055;BME280;59936;51.490;5.436;2022-11-20T19:59:27;100075.81;;;5.92;100.00
72055;BME280;59936;51.490;5.436;2022-11-20T20:04:29;100077.84;;;5.84;100.00
72055;BME280;59936;51.490;5.436;2022-11-20T20:09:32;100077.94;;;5.81;100.00
72055;BME280;59936;51.490;5.436;2022-11-20T20:14:35;100090.31;;;5.73;100.00
72055;BME280;59936;51.490;5.436;2022-11-20T20:19:37;100089.22;;;5.80;100.00
72055;BME280;59936;51.490;5.436;2022-11-20T20:24:39;100094.38;;;5.80;100.00
72055;BME280;59936;51.490;5.436;2022-11-20T20:29:43;100101.34;;;5.78;100.00
72055;BME280;59936;51.490;5.436;2022-11-20T20:34:44;100105.41;;;5.85;100.00
72055;BME280;59936;51.490;5.436;2022-11-20T20:39:46;100114.66;;;5.92;100.00
72055;BME280;59936;51.490;5.436;2022-11-20T20:44:49;100104.63;;;5.83;100.00
72055;BME280;59936;51.490;5.436;2022-11-20T20:50:08;100101.44;;;5.76;100.00
72055;BME280;59936;51.490;5.436;2022-11-20T20:55:12;100110.88;;;5.77;100.00
72055;BME280;59936;51.490;5.436;2022-11-20T21:00:16;100119.47;;;5.78;100.00
72055;BME280;59936;51.490;5.436;2022-11-20T21:05:18;100133.31;;;5.77;100.00
72055;BME280;59936;51.490;5.436;2022-11-20T21:10:21;100133.13;;;5.83;100.00
72055;BME280;59936;51.490;5.436;2022-11-20T21:15:24;100127.22;;;5.78;100.00
72055;BME280;59936;51.490;5.436;2022-11-20T21:20:25;100133.41;;;5.74;100.00
72055;BME280;59936;51.490;5.436;2022-11-20T21:25:44;100128.03;;;5.80;100.00
72055;BME280;59936;51.490;5.436;2022-11-20T21:30:47;100135.31;;;5.69;100.00
72055;BME280;59936;51.490;5.436;2022-11-20T21:35:49;100133.75;;;5.64;100.00
72055;BME280;59936;51.490;5.436;2022-11-20T21:40:51;100139.88;;;5.62;100.00
72055;BME280;59936;51.490;5.436;2022-11-20T21:45:59;100159.63;;;5.64;100.00
72055;BME280;59936;51.490;5.436;2022-11-20T21:51:01;100166.69;;;5.59;100.00
72055;BME280;59936;51.490;5.436;2022-11-20T21:56:04;100161.72;;;5.53;100.00
72055;BME280;59936;51.490;5.436;2022-11-20T22:01:12;100151.56;;;5.47;100.00
72055;BME280;59936;51.490;5.436;2022-11-20T22:06:15;100148.44;;;5.37;100.00
72055;BME280;59936;51.490;5.436;2022-11-20T22:11:20;100153.88;;;5.27;100.00
72055;BME280;59936;51.490;5.436;2022-11-20T22:16:24;100166.09;;;5.24;100.00
72055;BME280;59936;51.490;5.436;2022-11-20T22:21:28;100173.75;;;5.27;100.00
72055;BME280;59936;51.490;5.436;2022-11-20T22:26:34;100184.78;;;5.32;100.00
72055;BME280;59936;51.490;5.436;2022-11-20T22:31:37;100195.16;;;5.32;100.00
72055;BME280;59936;51.490;5.436;2022-11-20T22:36:40;100210.69;;;5.32;100.00
72055;BME280;59936;51.490;5.436;2022-11-20T22:41:41;100225.38;;;5.30;100.00
72055;BME280;59936;51.490;5.436;2022-11-20T22:46:44;100195.22;;;5.29;100.00
72055;BME280;59936;51.490;5.436;2022-11-20T22:51:46;100189.38;;;5.24;100.00
72055;BME280;59936;51.490;5.436;2022-11-20T22:56:48;100189.66;;;5.13;100.00
72055;BME280;59936;51.490;5.436;2022-11-20T23:01:51;100198.75;;;4.98;100.00
72055;BME280;59936;51.490;5.436;2022-11-20T23:06:54;100211.75;;;4.95;100.00
72055;BME280;59936;51.490;5.436;2022-11-20T23:11:56;100218.66;;;4.96;100.00
72055;BME280;59936;51.490;5.436;2022-11-20T23:16:58;100267.44;;;5.08;100.00
72055;BME280;59936;51.490;5.436;2022-11-20T23:22:00;100250.84;;;5.15;100.00
72055;BME280;59936;51.490;5.436;2022-11-20T23:27:02;100251.59;;;5.19;100.00
72055;BME280;59936;51.490;5.436;2022-11-20T23:32:05;100249.03;;;5.18;100.00
72055;BME280;59936;51.490;5.436;2022-11-20T23:37:06;100256.06;;;5.14;100.00
72055;BME280;59936;51.490;5.436;2022-11-20T23:42:08;100250.03;;;5.13;100.00
72055;BME280;59936;51.490;5.436;2022-11-20T23:47:13;100242.25;;;5.13;100.00
72055;BME280;59936;51.490;5.436;2022-11-20T23:52:14;100256.00;;;5.15;100.00
72055;BME280;59936;51.490;5.436;2022-11-20T23:57:16;100256.00;;;5.15;100.00
